Time;durP1;ratioP1;P1;durP2;ratioP2;P2;SDS_P1;SDS_P2;PMS_P1;PMS_P2;Temp;Humidity;BMP_temperature;BMP_pressure;BME280_temperature;BME280_humidity;BME280_pressure;Samples;Min_cycle;Max_cycle;Signal;HPM_P1;HPM_P2
2022/12/09 00:02:20;;;;;;;20.07;11.27;;;4.40;99.90;;;1.93;100.00;99580.91;10571771;27;20451;-81
2022/12/09 00:07:23;;;;;;;25.63;12.70;;;4.40;99.90;;;1.91;100.00;99574.94;10565382;27;20090;-80
2022/12/09 00:12:26;;;;;;;27.83;12.90;;;4.40;99.90;;;1.93;100.00;99592.22;10590170;27;20055;-80
2022/12/09 00:17:30;;;;;;;22.30;11.53;;;4.40;99.90;;;1.94;100.00;99577.31;10606053;27;20056;-80
2022/12/09 00:22:33;;;;;;;25.07;11.93;;;4.40;99.90;;;1.93;100.00;99566.00;10590997;27;20059;-81
2022/12/09 00:27:36;;;;;;;29.87;13.13;;;4.40;99.90;;;1.94;100.00;99575.53;10578426;27;20083;-81
2022/12/09 00:32:39;;;;;;;21.33;10.87;;;4.40;99.90;;;1.93;100.00;99591.38;10592239;27;20052;-81
2022/12/09 00:37:42;;;;;;;20.77;9.73;;;4.40;99.90;;;1.93;100.00;99607.09;10603301;27;20051;-81
2022/12/09 00:42:45;;;;;;;21.33;10.90;;;4.40;99.90;;;1.92;100.00;99615.91;10604373;27;20526;-81
2022/12/09 00:47:48;;;;;;;26.00;12.37;;;4.40;99.90;;;1.93;100.00;99600.06;10625620;27;20528;-80
2022/12/09 00:52:51;;;;;;;32.43;15.03;;;4.40;99.90;;;1.94;100.00;99609.59;10598344;27;20059;-80
2022/12/09 00:57:55;;;;;;;29.23;13.43;;;4.40;99.90;;;1.94;100.00;99595.66;10613380;27;20060;-80
2022/12/09 01:02:58;;;;;;;26.17;13.70;;;4.40;99.90;;;1.92;100.00;99584.44;10612987;27;20059;-80
2022/12/09 01:08:01;;;;;;;22.87;11.30;;;4.30;99.90;;;1.92;100.00;99584.44;10599173;27;20446;-80
2022/12/09 01:13:05;;;;;;;23.17;10.50;;;4.40;99.90;;;1.91;100.00;99585.41;10596338;27;20147;-80
2022/12/09 01:18:11;;;;;;;30.83;14.07;;;4.30;99.90;;;1.91;100.00;99598.53;10581351;27;20211;-81
2022/12/09 01:23:13;;;;;;;26.30;13.03;;;4.30;99.90;;;1.90;100.00;99592.44;10585979;27;20059;-81
2022/12/09 01:28:16;;;;;;;22.83;10.97;;;4.30;99.90;;;1.88;100.00;99589.97;10615194;27;20059;-81
2022/12/09 01:33:19;;;;;;;24.50;12.70;;;4.30;99.90;;;1.90;100.00;99586.38;10581609;27;20056;-80
2022/12/09 01:38:22;;;;;;;23.17;12.33;;;4.30;99.90;;;1.90;100.00;99599.47;10570447;28;20109;-81
2022/12/09 01:43:25;;;;;;;21.73;10.50;;;4.30;99.90;;;1.91;100.00;99588.03;10566026;27;20148;-81
2022/12/09 01:48:38;;;;;;;25.73;12.80;;;4.30;99.90;;;1.88;100.00;99568.19;10594761;27;20056;-81
2022/12/09 01:53:45;;;;;;;22.53;11.63;;;4.30;99.90;;;1.87;100.00;99559.50;10600561;27;20446;-81
2022/12/09 01:58:49;;;;;;;21.87;11.03;;;4.30;99.90;;;1.85;100.00;99564.00;10598667;27;20443;-80
2022/12/09 02:03:52;;;;;;;20.27;12.23;;;4.30;99.90;;;1.84;100.00;99575.44;10570443;27;20105;-80
2022/12/09 02:08:56;;;;;;;25.90;12.67;;;4.30;99.90;;;1.83;100.00;99572.97;10608682;27;20137;-80
2022/12/09 02:14:38;;;;;;;25.33;11.83;;;4.30;99.90;;;1.83;100.00;99571.19;10615771;27;20158;-81
2022/12/09 02:19:50;;;;;;;24.23;12.10;;;4.30;99.90;;;1.84;100.00;99580.69;10605590;27;20063;-81
2022/12/09 02:25:19;;;;;;;25.27;12.03;;;4.30;99.90;;;1.84;100.00;99585.09;10612628;27;20081;-79
2022/12/09 02:30:32;;;;;;;25.97;12.57;;;4.30;99.90;;;1.83;100.00;99571.19;10586192;27;20424;-79
2022/12/09 02:35:56;;;;;;;23.43;12.00;;;4.30;99.90;;;1.83;100.00;99558.06;10586969;28;20067;-79
2022/12/09 02:41:06;;;;;;;29.23;14.30;;;4.20;99.90;;;1.80;100.00;99547.88;10609259;27;20055;-79
2022/12/09 02:46:11;;;;;;;25.60;13.33;;;4.20;99.90;;;1.79;100.00;99543.56;10623362;27;20105;-79
2022/12/09 02:51:18;;;;;;;24.30;12.50;;;4.20;99.90;;;1.79;100.00;99556.66;10593612;27;20059;-79
2022/12/09 02:56:22;;;;;;;23.53;12.10;;;4.20;99.90;;;1.78;100.00;99557.63;10587358;27;20055;-79
2022/12/09 03:01:47;;;;;;;26.73;12.67;;;4.20;99.90;;;1.80;100.00;99550.50;10593792;27;20125;-80
2022/12/09 03:06:53;;;;;;;26.23;12.80;;;4.20;99.90;;;1.81;100.00;99544.28;10553281;27;20102;-80
2022/12/09 03:12:05;;;;;;;22.83;11.03;;;4.30;99.90;;;1.83;100.00;99547.59;10573913;27;20055;-81
2022/12/09 03:17:32;;;;;;;20.50;9.70;;;4.30;99.90;;;1.86;100.00;99541.28;10583466;27;20082;-81
2022/12/09 03:22:39;;;;;;;29.00;13.70;;;4.30;99.90;;;1.87;100.00;99537.69;10608009;27;20088;-81
2022/12/09 03:27:48;;;;;;;27.63;12.43;;;4.30;99.90;;;1.86;100.00;99543.91;10619946;27;20078;-81
2022/12/09 03:32:54;;;;;;;27.70;11.77;;;4.30;99.90;;;1.86;100.00;99557.84;10601764;27;20137;-81
2022/12/09 03:38:00;;;;;;;21.43;10.27;;;4.30;99.90;;;1.89;100.00;99567.22;10558077;27;20098;-81
2022/12/09 03:43:09;;;;;;;19.50;11.20;;;4.30;99.90;;;1.89;100.00;99548.88;10549885;27;20070;-81
2022/12/09 03:48:13;;;;;;;29.93;14.00;;;4.30;99.90;;;1.91;100.00;99553.97;10608460;27;20056;-81
2022/12/09 03:53:24;;;;;;;18.10;9.30;;;4.30;99.90;;;1.91;100.00;99546.13;10566834;28;20062;-81
2022/12/09 03:58:32;;;;;;;22.97;10.77;;;4.30;99.90;;;1.91;100.00;99536.47;10565244;27;20137;-81
2022/12/09 04:03:36;;;;;;;22.13;11.47;;;4.30;99.90;;;1.87;100.00;99549.00;10548909;28;20056;-81
2022/12/09 04:08:39;;;;;;;35.67;14.27;;;4.30;99.90;;;1.85;100.00;99547.47;10604281;27;20055;-81
2022/12/09 04:13:42;;;;;;;32.83;13.73;;;4.30;99.90;;;1.82;100.00;99543.31;10581100;27;20404;-81
2022/12/09 04:18:45;;;;;;;36.67;15.90;;;4.30;99.90;;;1.81;100.00;99546.91;10548299;27;20086;-80
2022/12/09 04:23:49;;;;;;;40.00;17.33;;;4.30;99.90;;;1.81;100.00;99549.53;10567176;28;20132;-80
2022/12/09 04:28:52;;;;;;;32.23;15.10;;;4.30;99.90;;;1.80;100.00;99537.38;10585315;27;20062;-80
2022/12/09 04:33:55;;;;;;;39.63;17.13;;;4.20;99.90;;;1.76;100.00;99528.13;10570988;27;20056;-81
2022/12/09 04:38:58;;;;;;;30.17;14.17;;;4.20;99.90;;;1.74;100.00;99518.69;10628472;27;20059;-81
2022/12/09 04:44:02;;;;;;;33.53;14.63;;;4.10;99.90;;;1.71;100.00;99532.06;10597654;27;20067;-81
2022/12/09 04:49:05;;;;;;;34.50;16.60;;;4.10;99.90;;;1.68;100.00;99529.69;10561951;27;20063;-81
2022/12/09 04:54:13;;;;;;;39.90;16.53;;;4.00;99.90;;;1.66;100.00;99527.22;10601680;27;20056;-81
2022/12/09 04:59:16;;;;;;;36.73;15.83;;;4.00;99.90;;;1.65;100.00;99525.56;10590071;27;20139;-79
2022/12/09 05:04:20;;;;;;;33.70;15.07;;;4.00;99.90;;;1.64;100.00;99523.06;10618367;27;20091;-79
2022/12/09 05:09:23;;;;;;;31.47;15.30;;;4.00;99.90;;;1.62;100.00;99520.59;10568715;27;20458;-79
2022/12/09 05:14:26;;;;;;;32.10;15.50;;;4.00;99.90;;;1.61;100.00;99524.97;10537786;27;20420;-79
2022/12/09 05:19:30;;;;;;;36.17;16.80;;;4.00;99.90;;;1.64;100.00;99523.06;10575917;27;20056;-79
2022/12/09 05:24:33;;;;;;;38.57;15.83;;;4.00;99.90;;;1.63;100.00;99517.00;10570019;27;20067;-78
2022/12/09 05:29:36;;;;;;;35.10;16.17;;;4.00;99.90;;;1.65;100.00;99519.47;10591165;27;20083;-79
2022/12/09 05:34:39;;;;;;;26.17;13.63;;;4.00;99.90;;;1.67;100.00;99528.03;10609361;27;20146;-79
2022/12/09 05:39:43;;;;;;;32.93;14.50;;;4.00;99.90;;;1.67;100.00;99523.63;10617163;27;20105;-79
2022/12/09 05:44:45;;;;;;;35.77;15.40;;;4.10;99.90;;;1.69;100.00;99511.25;10577104;27;20142;-79
2022/12/09 05:49:48;;;;;;;40.50;16.90;;;4.10;99.90;;;1.71;100.00;99517.19;10604639;27;20495;-79
2022/12/09 05:54:52;;;;;;;42.30;17.83;;;4.10;99.90;;;1.71;100.00;99498.84;10594044;27;20091;-79
2022/12/09 05:59:55;;;;;;;35.17;15.07;;;4.20;99.90;;;1.74;100.00;99503.84;10608469;27;20083;-80
2022/12/09 06:04:58;;;;;;;34.73;15.30;;;4.20;99.90;;;1.76;100.00;99504.53;10587328;27;20055;-78
2022/12/09 06:10:03;;;;;;;35.90;16.10;;;4.20;99.90;;;1.77;100.00;99503.56;10588853;27;20059;-79
2022/12/09 06:15:08;;;;;;;40.17;16.80;;;4.20;99.90;;;1.79;100.00;99516.53;10616441;27;20091;-81
2022/12/09 06:20:14;;;;;;;34.43;16.03;;;4.20;99.90;;;1.81;100.00;99493.69;10605165;27;20426;-80
2022/12/09 06:25:18;;;;;;;39.50;18.77;;;4.20;99.90;;;1.82;100.00;99492.72;10586315;27;20066;-80
2022/12/09 06:30:21;;;;;;;49.77;18.70;;;4.20;99.90;;;1.83;100.00;99489.13;10600481;27;20060;-80
2022/12/09 06:35:24;;;;;;;53.03;21.50;;;4.20;99.90;;;1.82;100.00;99485.69;10609582;27;20120;-81
2022/12/09 06:40:27;;;;;;;40.63;16.03;;;4.20;99.90;;;1.81;100.00;99475.34;10601958;27;20078;-80
2022/12/09 06:45:30;;;;;;;59.73;22.80;;;4.20;99.90;;;1.80;100.00;99482.38;10609366;27;20503;-81
2022/12/09 06:50:33;;;;;;;47.27;18.93;;;4.20;99.90;;;1.81;100.00;99491.88;10612369;27;20165;-81
2022/12/09 06:55:37;;;;;;;50.10;21.03;;;4.20;99.90;;;1.82;100.00;99492.72;10644783;27;20063;-81
2022/12/09 07:00:40;;;;;;;47.93;20.07;;;4.20;99.90;;;1.83;100.00;99497.81;10644268;27;20059;-81
2022/12/09 07:05:44;;;;;;;42.17;16.93;;;4.20;99.90;;;1.84;100.00;99499.47;10613647;27;20111;-80
2022/12/09 07:10:47;;;;;;;47.67;18.20;;;4.20;99.90;;;1.83;100.00;99491.75;10624390;27;20062;-81
2022/12/09 07:15:58;;;;;;;49.17;20.37;;;4.10;99.90;;;1.84;100.00;99488.16;10612179;27;20515;-81
2022/12/09 07:21:10;;;;;;;44.73;18.60;;;4.20;99.90;;;1.85;100.00;99474.94;10608003;27;20060;-81
2022/12/09 07:26:14;;;;;;;43.93;19.73;;;4.20;99.90;;;1.90;100.00;99473.72;10590769;27;20550;-81
2022/12/09 07:31:27;;;;;;;46.00;18.03;;;4.20;99.90;;;1.91;100.00;99462.28;10583729;27;20059;-81
2022/12/09 07:36:33;;;;;;;42.20;18.43;;;4.30;99.90;;;1.95;100.00;99463.69;10557012;27;20059;-81
2022/12/09 07:41:36;;;;;;;43.10;18.43;;;4.30;99.90;;;1.99;100.00;99467.72;10610583;27;20565;-81
2022/12/09 07:46:39;;;;;;;41.03;19.40;;;4.30;99.90;;;2.02;100.00;99475.28;10606693;27;20056;-81
2022/12/09 07:51:43;;;;;;;45.60;19.00;;;4.40;99.90;;;2.04;100.00;99471.59;10627030;27;20529;-81
2022/12/09 07:56:47;;;;;;;51.37;23.20;;;4.40;99.90;;;2.08;100.00;99466.91;10590844;27;20499;-81
2022/12/09 08:01:50;;;;;;;48.10;22.20;;;4.40;99.90;;;2.13;100.00;99477.84;10524201;28;20504;-81
2022/12/09 08:06:54;;;;;;;47.50;21.97;;;4.50;99.90;;;2.19;100.00;99464.19;10542375;28;20061;-81
2022/12/09 08:11:57;;;;;;;46.90;21.07;;;4.60;99.90;;;2.26;100.00;99451.38;10543661;28;20060;-80
2022/12/09 08:17:01;;;;;;;59.27;23.67;;;4.60;99.90;;;2.28;100.00;99449.44;10531609;28;20057;-81
2022/12/09 08:22:04;;;;;;;55.90;23.13;;;4.60;99.90;;;2.30;100.00;99456.25;10525133;28;20118;-81
2022/12/09 08:27:07;;;;;;;52.67;21.53;;;4.60;99.90;;;2.34;100.00;99457.63;10556279;28;20531;-81
2022/12/09 08:32:11;;;;;;;47.40;21.10;;;4.70;99.90;;;2.36;100.00;99447.84;10524516;28;20124;-81
2022/12/09 08:37:14;;;;;;;53.73;22.50;;;4.70;99.90;;;2.40;100.00;99443.16;10536183;28;20416;-81
2022/12/09 08:42:17;;;;;;;45.03;19.47;;;4.80;99.90;;;2.42;100.00;99434.19;10572596;27;20061;-81
2022/12/09 08:47:20;;;;;;;57.90;25.93;;;4.80;99.90;;;2.48;100.00;99432.00;10540625;28;20056;-81
2022/12/09 08:52:24;;;;;;;54.53;24.80;;;4.80;99.90;;;2.51;100.00;99427.28;10540585;28;20059;-81
2022/12/09 08:57:27;;;;;;;56.73;26.90;;;4.80;99.90;;;2.55;100.00;99426.06;10533371;27;20064;-81
2022/12/09 09:02:31;;;;;;;52.40;22.40;;;4.90;99.90;;;2.58;100.00;99424.94;10611115;27;20056;-81
2022/12/09 09:07:35;;;;;;;42.33;19.67;;;4.90;99.90;;;2.60;100.00;99412.56;10631827;27;20051;-81
2022/12/09 09:12:39;;;;;;;47.47;20.00;;;5.00;99.90;;;2.63;100.00;99407.03;10633458;27;20063;-81
2022/12/09 09:17:45;;;;;;;68.70;25.23;;;5.00;99.90;;;2.66;100.00;99404.13;10613137;27;20086;-81
2022/12/09 09:22:53;;;;;;;57.80;22.67;;;5.00;99.90;;;2.65;100.00;99400.69;10599581;27;20056;-81
2022/12/09 09:28:04;;;;;;;54.93;21.87;;;5.00;99.90;;;2.67;100.00;99390.88;10614781;27;20407;-82
2022/12/09 09:33:08;;;;;;;44.40;20.13;;;5.00;99.90;;;2.70;100.00;99387.16;10617581;27;20059;-82
2022/12/09 09:38:11;;;;;;;44.13;20.33;;;5.00;99.90;;;2.73;100.00;99379.00;10597881;27;20055;-82
2022/12/09 09:43:18;;;;;;;47.53;20.03;;;5.10;99.90;;;2.73;100.00;99378.19;10616009;27;20442;-82
2022/12/09 09:48:28;;;;;;;49.03;19.90;;;5.00;99.90;;;2.71;100.00;99372.25;10558953;28;20064;-82
2022/12/09 09:53:34;;;;;;;50.83;20.90;;;5.00;99.90;;;2.71;100.00;99361.75;10572620;28;20056;-82
2022/12/09 09:58:55;;;;;;;42.07;18.83;;;5.00;99.90;;;2.68;100.00;99358.44;10602265;27;20197;-82
2022/12/09 10:04:13;;;;;;;46.07;19.30;;;5.00;99.90;;;2.65;100.00;99347.41;10601041;27;20059;-82
2022/12/09 10:09:51;;;;;;;46.47;19.80;;;5.00;99.90;;;2.64;100.00;99351.81;10613680;27;20170;-82
2022/12/09 10:15:11;;;;;;;41.40;19.70;;;5.00;99.90;;;2.68;100.00;99334.00;10613470;27;20060;-82
2022/12/09 10:20:19;;;;;;;38.27;16.63;;;5.00;99.90;;;2.72;100.00;99310.94;10588210;28;20056;-81
2022/12/09 10:25:30;;;;;;;40.67;17.30;;;5.10;99.90;;;2.76;100.00;99307.91;10555346;27;20056;-82
2022/12/09 10:30:33;;;;;;;42.57;17.93;;;5.10;99.90;;;2.80;100.00;99288.28;10561269;27;20063;-82
2022/12/09 10:35:46;;;;;;;40.83;18.30;;;5.10;99.90;;;2.77;100.00;99275.44;10597205;27;20146;-83
2022/12/09 10:41:06;;;;;;;39.20;17.90;;;5.10;99.90;;;2.74;100.00;99261.78;10613125;27;20059;-82
2022/12/09 10:46:22;;;;;;;47.83;20.07;;;5.10;99.90;;;2.73;100.00;99254.88;10578314;27;20055;-82
2022/12/09 10:51:34;;;;;;;43.50;19.17;;;5.00;99.90;;;2.71;100.00;99235.84;10595029;27;20056;-82
2022/12/09 10:57:03;;;;;;;38.90;16.60;;;5.00;99.90;;;2.68;100.00;99222.00;10603203;27;20151;-82
2022/12/09 11:02:09;;;;;;;39.57;17.53;;;5.00;99.90;;;2.61;100.00;99214.84;10614588;27;20060;-83
2022/12/09 11:07:21;;;;;;;34.10;17.30;;;4.90;99.90;;;2.56;100.00;99198.72;10629469;27;20086;-83
2022/12/09 11:12:33;;;;;;;37.30;17.70;;;4.90;99.90;;;2.51;100.00;99191.25;10621634;27;20415;-82
2022/12/09 11:17:58;;;;;;;36.10;17.23;;;4.80;99.90;;;2.47;100.00;99175.97;10628758;27;20507;-82
2022/12/09 11:23:21;;;;;;;37.63;17.70;;;4.70;99.90;;;2.42;100.00;99174.59;10611690;27;20062;-82
2022/12/09 11:28:29;;;;;;;35.97;16.17;;;4.70;99.90;;;2.44;100.00;99173.63;10578453;27;20147;-83
2022/12/09 11:33:39;;;;;;;30.57;14.60;;;4.70;99.90;;;2.40;100.00;99166.06;10580227;27;20092;-82
2022/12/09 11:38:50;;;;;;;31.00;14.70;;;4.70;99.90;;;2.41;100.00;99162.47;10554134;27;20101;-82
2022/12/09 11:43:55;;;;;;;31.77;14.80;;;4.70;99.90;;;2.42;100.00;99144.94;10610465;27;20055;-83
2022/12/09 11:49:15;;;;;;;32.23;13.63;;;4.70;99.90;;;2.39;100.00;99143.41;10552690;28;20056;-82
2022/12/09 11:54:49;;;;;;;30.03;14.60;;;4.70;99.90;;;2.40;100.00;99124.09;10569084;27;20064;-83
2022/12/09 12:00:00;;;;;;;33.63;14.57;;;4.70;99.90;;;2.39;100.00;99121.59;10539130;27;20139;-83
2022/12/09 12:05:28;;;;;;;32.50;14.97;;;4.70;99.90;;;2.42;100.00;99139.69;10625301;27;20519;-82
2022/12/09 12:10:39;;;;;;;29.63;13.80;;;4.70;99.90;;;2.44;100.00;99124.63;10567270;28;20117;-82
2022/12/09 12:15:47;;;;;;;29.02;14.18;;;4.70;99.90;;;2.46;100.00;99122.72;10579308;27;20056;-82
2022/12/09 12:21:18;;;;;;;30.03;15.77;;;4.80;99.90;;;2.47;100.00;99113.88;10574649;28;20066;-81
2022/12/09 12:26:42;;;;;;;25.03;12.67;;;4.80;99.90;;;2.49;100.00;99105.84;10567275;28;20070;-81
2022/12/09 12:32:27;;;;;;;32.40;16.37;;;4.80;99.90;;;2.47;100.00;99108.63;10610256;27;20056;-81
2022/12/09 12:37:36;;;;;;;30.40;16.17;;;4.80;99.90;;;2.51;100.00;99099.47;10620760;27;20056;-81
2022/12/09 12:48:47;;;;;;;24.50;12.73;;;4.80;99.90;;;2.54;100.00;99090.50;10611015;27;20101;-82
2022/12/09 12:54:49;;;;;;;28.63;13.57;;;4.80;99.90;;;2.54;100.00;99082.66;10602677;27;20060;-82
2022/12/09 13:00:09;;;;;;;24.43;13.43;;;4.80;99.90;;;2.57;100.00;99079.72;10432844;28;20064;-82
2022/12/09 13:05:26;;;;;;;25.27;12.90;;;4.90;99.90;;;2.58;100.00;99063.88;10583680;27;20113;-82
2022/12/09 13:10:49;;;;;;;25.47;12.20;;;4.90;99.90;;;2.62;100.00;99069.63;10609008;27;20043;-82
2022/12/09 13:15:59;;;;;;;30.00;13.20;;;4.90;99.90;;;2.65;100.00;99066.72;10603745;27;20060;-82
2022/12/09 13:21:05;;;;;;;26.63;12.50;;;5.00;99.90;;;2.66;100.00;99061.34;10593188;27;20052;-82
2022/12/09 13:26:57;;;;;;;31.33;13.87;;;5.00;99.90;;;2.70;100.00;99056.63;10567120;27;20056;-83
2022/12/09 13:32:50;;;;;;;115.73;41.00;;;5.00;99.90;;;2.72;100.00;99054.69;10622353;27;20150;-83
2022/12/09 13:37:55;;;;;;;62.83;29.50;;;5.00;99.90;;;2.75;100.00;99049.13;10626957;27;20055;-83
2022/12/09 13:43:01;;;;;;;91.80;43.33;;;5.00;99.90;;;2.76;100.00;99045.56;10601973;27;20078;-84
2022/12/09 13:48:10;;;;;;;44.40;20.17;;;5.10;99.90;;;2.79;100.00;99033.94;10604910;27;20059;-82
2022/12/09 13:53:19;;;;;;;41.67;18.10;;;5.10;99.90;;;2.82;100.00;99031.00;10611592;27;20668;-83
2022/12/09 13:59:14;;;;;;;56.80;25.83;;;5.20;99.90;;;2.83;100.00;99036.13;10619107;27;20518;-83
2022/12/09 14:04:20;;;;;;;42.60;18.50;;;5.20;99.90;;;2.83;100.00;99030.88;10560741;27;20066;-83
2022/12/09 14:09:25;;;;;;;51.43;19.60;;;5.20;99.90;;;2.84;100.00;99034.31;10590545;27;20067;-83
2022/12/09 14:14:28;;;;;;;54.90;26.27;;;5.20;99.90;;;2.84;100.00;99010.72;10604834;27;20147;-83
2022/12/09 14:19:49;;;;;;;41.00;18.33;;;5.20;99.90;;;2.84;100.00;99016.78;10640584;27;20056;-83
2022/12/09 14:24:58;;;;;;;46.97;18.13;;;5.20;99.90;;;2.83;100.00;99004.63;10600238;27;20071;-83
2022/12/09 14:30:33;;;;;;;39.70;16.33;;;5.20;99.90;;;2.85;100.00;99010.56;10595637;27;20055;-83
2022/12/09 14:35:49;;;;;;;33.97;15.80;;;5.20;99.90;;;2.85;100.00;98992.19;10575999;27;20067;-83
2022/12/09 14:40:58;;;;;;;39.63;16.63;;;5.20;99.90;;;2.85;100.00;98978.25;10590763;27;20062;-83
2022/12/09 14:46:27;;;;;;;39.93;18.30;;;5.20;99.90;;;2.85;100.00;98978.25;10596372;27;20060;-83
2022/12/09 14:52:02;;;;;;;38.60;17.13;;;5.20;99.90;;;2.84;100.00;98973.97;10602891;27;21533;-82
2022/12/09 14:57:33;;;;;;;32.83;15.03;;;5.20;99.90;;;2.83;100.00;98952.16;10580122;27;20056;-82
2022/12/09 15:02:36;;;;;;;68.83;29.07;;;5.10;99.90;;;2.84;100.00;98942.50;10581512;27;20052;-83
2022/12/09 15:07:43;;;;;;;46.03;20.97;;;5.20;99.90;;;2.82;100.00;98928.69;10622979;27;20418;-83
2022/12/09 15:12:51;;;;;;;49.53;19.17;;;5.20;99.90;;;2.82;100.00;98933.94;10599407;27;20530;-82
2022/12/09 15:18:00;;;;;;;47.73;21.20;;;5.10;99.90;;;2.84;100.00;98932.81;10602037;27;20056;-82
2022/12/09 15:23:29;;;;;;;40.67;15.10;;;5.10;99.90;;;2.85;100.00;98928.41;10579190;27;20060;-83
2022/12/09 15:28:36;;;;;;;30.83;14.37;;;5.10;99.90;;;2.85;100.00;98916.09;10612604;27;20491;-82
2022/12/09 15:33:46;;;;;;;41.53;18.00;;;5.20;99.90;;;2.88;100.00;98917.63;10566886;27;20055;-80
2022/12/09 15:39:09;;;;;;;34.47;15.97;;;5.20;99.90;;;2.86;100.00;98912.50;10610615;27;20075;-79
2022/12/09 15:44:18;;;;;;;39.80;16.63;;;5.20;99.90;;;2.88;100.00;98905.31;10566640;27;20066;-76
2022/12/09 15:49:28;;;;;;;41.43;16.80;;;5.20;99.90;;;2.89;100.00;98901.72;10576166;28;20056;-77
2022/12/09 15:54:38;;;;;;;29.67;14.23;;;5.20;99.90;;;2.90;100.00;98879.75;10612650;27;20058;-78
2022/12/09 15:59:45;;;;;;;39.33;15.10;;;5.20;99.90;;;2.88;100.00;98863.34;10614962;27;20493;-78
2022/12/09 16:05:01;;;;;;;30.30;13.57;;;5.20;99.90;;;2.88;100.00;98868.59;10590212;27;20121;-78
2022/12/09 16:10:15;;;;;;;30.07;13.17;;;5.20;99.90;;;2.88;100.00;98862.50;10591906;27;20148;-78
2022/12/09 16:15:55;;;;;;;31.37;14.67;;;5.20;99.90;;;2.87;100.00;98853.78;10581823;27;20499;-78
2022/12/09 16:21:24;;;;;;;33.93;13.73;;;5.20;99.90;;;2.87;100.00;98845.09;10590095;27;20068;-77
2022/12/09 16:26:35;;;;;;;44.27;17.10;;;5.20;99.90;;;2.88;100.00;98844.16;10559913;27;20052;-78
2022/12/09 16:31:39;;;;;;;38.40;16.80;;;5.20;99.90;;;2.89;100.00;98841.38;10594532;27;20105;-78
2022/12/09 16:36:54;;;;;;;38.83;15.90;;;5.20;99.90;;;2.88;100.00;98833.66;10611402;27;20085;-78
2022/12/09 16:42:00;;;;;;;33.17;13.43;;;5.20;99.90;;;2.89;100.00;98820.38;10584165;27;20081;-78
2022/12/09 16:47:17;;;;;;;44.63;17.37;;;5.20;99.90;;;2.91;100.00;98807.91;10624312;27;20411;-78
2022/12/09 16:52:23;;;;;;;33.17;12.87;;;5.20;99.90;;;2.92;100.00;98796.44;10584030;27;20133;-77
2022/12/09 16:57:26;;;;;;;25.60;12.37;;;5.20;99.90;;;2.92;100.00;98791.19;10595637;27;20071;-77
2022/12/09 17:02:42;;;;;;;27.40;14.00;;;5.20;99.90;;;2.93;100.00;98784.97;10597642;27;20490;-78
2022/12/09 17:07:45;;;;;;;27.93;14.63;;;5.30;99.90;;;2.93;100.00;98777.09;10572462;27;20059;-78
2022/12/09 17:12:48;;;;;;;32.43;14.27;;;5.20;99.90;;;2.92;100.00;98775.44;10603405;27;20055;-77
2022/12/09 17:17:51;;;;;;;27.53;12.73;;;5.20;99.90;;;2.93;100.00;98763.97;10625147;27;20522;-77
2022/12/09 17:22:55;;;;;;;25.37;11.07;;;5.20;99.90;;;2.93;100.00;98750.84;10628134;27;20087;-77
2022/12/09 17:28:06;;;;;;;23.93;11.63;;;5.20;99.90;;;2.93;100.00;98747.41;10614268;27;20082;-77
2022/12/09 17:33:09;;;;;;;29.83;11.37;;;5.20;99.90;;;2.93;100.00;98742.97;10613502;27;20060;-77
2022/12/09 17:38:12;;;;;;;27.87;11.17;;;5.20;99.90;;;2.93;100.00;98753.47;10619795;27;20060;-77
2022/12/09 17:43:15;;;;;;;29.67;12.07;;;5.20;99.90;;;2.94;100.00;98743.81;10564644;27;20062;-77
2022/12/09 17:48:18;;;;;;;38.70;14.77;;;5.20;99.90;;;2.94;100.00;98730.72;10614826;27;20146;-77
2022/12/09 17:53:21;;;;;;;29.20;11.03;;;5.20;99.90;;;2.92;100.00;98722.16;10597011;27;20062;-77
2022/12/09 17:58:24;;;;;;;29.80;12.33;;;5.20;99.90;;;2.91;100.00;98716.09;10611977;27;20067;-78
2022/12/09 18:03:28;;;;;;;27.83;11.10;;;5.20;99.90;;;2.92;100.00;98725.59;10613783;27;20060;-77
2022/12/09 18:08:52;;;;;;;22.53;10.33;;;5.20;99.90;;;2.94;100.00;98714.97;10619435;27;20415;-77
2022/12/09 18:13:55;;;;;;;29.37;12.27;;;5.20;99.90;;;2.95;100.00;98678.06;10586976;27;20063;-77
2022/12/09 18:19:05;;;;;;;21.93;11.13;;;5.30;99.90;;;2.95;100.00;98688.56;10597106;27;20392;-78
2022/12/09 18:24:08;;;;;;;24.47;10.43;;;5.30;99.90;;;2.95;100.00;98687.75;10589105;27;20054;-77
2022/12/09 18:29:11;;;;;;;24.90;10.50;;;5.30;99.90;;;2.94;100.00;98686.91;10590647;27;20105;-78
2022/12/09 18:34:15;;;;;;;25.80;11.20;;;5.20;99.90;;;2.97;100.00;98645.59;10622993;27;20082;-79
2022/12/09 18:39:18;;;;;;;19.60;10.13;;;5.20;99.90;;;2.95;100.00;98654.44;10591348;27;20052;-78
2022/12/09 18:44:21;;;;;;;22.17;10.33;;;5.30;99.90;;;2.97;100.00;98656.09;10622740;27;20138;-78
2022/12/09 18:49:27;;;;;;;19.93;10.00;;;5.20;99.90;;;2.99;100.00;98638.38;10580756;27;20070;-78
2022/12/09 18:54:31;;;;;;;20.67;9.17;;;5.30;99.90;;;2.99;100.00;98648.88;10594605;27;20062;-78
2022/12/09 18:59:34;;;;;;;14.00;7.30;;;5.30;99.90;;;2.98;100.00;98648.06;10598242;27;20119;-78
2022/12/09 19:04:37;;;;;;;14.80;7.70;;;5.30;99.90;;;2.98;100.00;98652.47;10633331;27;20067;-78
2022/12/09 19:09:40;;;;;;;13.17;6.47;;;5.30;99.90;;;2.97;100.00;98620.16;10582148;27;20154;-78
2022/12/09 19:14:43;;;;;;;21.37;8.40;;;5.20;99.90;;;2.97;100.00;98641.16;10626572;27;20150;-78
2022/12/09 19:19:48;;;;;;;13.93;7.47;;;5.30;99.90;;;2.98;100.00;98624.44;10589286;27;20116;-78
2022/12/09 19:24:51;;;;;;;13.30;7.20;;;5.20;99.90;;;2.99;100.00;98647.06;10600377;27;20062;-78
2022/12/09 19:29:54;;;;;;;14.93;8.30;;;5.30;99.90;;;3.01;100.00;98611.00;10631729;27;20063;-78
2022/12/09 19:34:57;;;;;;;14.33;7.80;;;5.30;99.90;;;3.03;100.00;98627.41;10604945;27;20063;-78
2022/12/09 19:40:00;;;;;;;16.30;8.77;;;5.30;99.90;;;3.06;100.00;98614.00;10606493;27;20565;-78
2022/12/09 19:45:04;;;;;;;22.13;10.40;;;5.30;99.90;;;3.08;100.00;98619.06;10581826;27;20527;-78
2022/12/09 19:50:14;;;;;;;31.60;15.17;;;5.40;99.90;;;3.08;100.00;98593.66;10591693;27;20060;-78
2022/12/09 19:55:17;;;;;;;19.63;9.77;;;5.40;99.90;;;3.11;100.00;98587.25;10614321;27;20529;-78
2022/12/09 20:00:20;;;;;;;16.93;8.33;;;5.40;99.90;;;3.14;100.00;98574.63;10569203;27;20123;-78
2022/12/09 20:05:23;;;;;;;25.00;11.60;;;5.40;99.90;;;3.18;100.00;98565.47;10597899;27;20052;-80
2022/12/09 20:10:26;;;;;;;23.30;11.50;;;5.50;99.90;;;3.23;100.00;98559.72;10656070;27;20194;-80
2022/12/09 20:15:28;;;;;;;31.70;14.97;;;5.50;99.90;;;3.26;100.00;98562.03;10601985;27;20526;-80
2022/12/09 20:20:33;;;;;;;26.20;12.50;;;5.60;99.90;;;3.29;100.00;98553.00;10581905;27;20056;-79
2022/12/09 20:25:36;;;;;;;41.63;16.07;;;5.60;99.90;;;3.33;100.00;98543.81;10622064;27;20059;-80
2022/12/09 20:30:39;;;;;;;57.13;19.43;;;5.60;99.90;;;3.35;100.00;98539.22;10617278;27;20067;-80
2022/12/09 20:35:42;;;;;;;41.00;17.57;;;5.60;99.90;;;3.37;100.00;98532.84;10571159;27;20121;-80
2022/12/09 20:40:45;;;;;;;26.73;12.40;;;5.70;99.90;;;3.40;100.00;98524.63;10610360;27;20052;-80
2022/12/09 20:45:47;;;;;;;28.93;12.67;;;5.70;99.90;;;3.43;100.00;98526.94;10559478;27;20056;-80
2022/12/09 20:50:51;;;;;;;32.70;15.07;;;5.70;99.90;;;3.45;100.00;98500.50;10564505;27;20066;-80
2022/12/09 20:55:56;;;;;;;23.03;12.83;;;5.70;99.90;;;3.49;100.00;98492.16;10576153;27;20066;-80
2022/12/09 21:01:36;;;;;;;37.37;15.80;;;5.80;99.90;;;3.51;100.00;98491.16;10624773;27;20509;-80
2022/12/09 21:06:41;;;;;;;38.17;14.97;;;5.80;99.90;;;3.52;100.00;98490.97;10571021;27;20055;-79
2022/12/09 21:11:45;;;;;;;23.33;12.17;;;5.80;99.90;;;3.53;100.00;98497.06;10573935;27;20052;-79
2022/12/09 21:16:49;;;;;;;18.83;8.73;;;5.80;99.90;;;3.54;100.00;98488.19;10569160;27;20083;-79